createdAt,value
2018-09-29T00:01:16.959Z,8.65
2018-09-29T00:03:46.355Z,8.62
2018-09-29T00:06:15.853Z,8.55
2018-09-29T00:08:46.006Z,8.54
2018-09-29T00:11:15.566Z,8.52
2018-09-29T00:13:45.034Z,8.49
2018-09-29T00:16:14.471Z,8.40
2018-09-29T00:18:43.941Z,8.33
2018-09-29T00:21:13.799Z,8.28
2018-09-29T00:23:44.390Z,8.25
2018-09-29T00:26:13.892Z,8.14
2018-09-29T00:28:43.259Z,8.09
2018-09-29T00:31:12.637Z,8.05
2018-09-29T00:33:42.112Z,8.03
2018-09-29T00:36:12.537Z,7.98
2018-09-29T00:38:42.112Z,7.97
2018-09-29T00:41:11.527Z,7.96
2018-09-29T00:43:40.867Z,7.94
2018-09-29T00:46:10.808Z,7.87
2018-09-29T00:48:40.231Z,7.87
2018-09-29T00:51:09.606Z,7.86
2018-09-29T00:53:40.286Z,7.83
2018-09-29T00:56:10.848Z,7.75
2018-09-29T00:58:40.212Z,7.67
2018-09-29T01:01:10.053Z,7.61
2018-09-29T01:03:39.468Z,7.55
2018-09-29T01:06:08.838Z,7.51
2018-09-29T01:08:39.105Z,7.52
2018-09-29T01:11:08.532Z,7.52
2018-09-29T01:13:37.889Z,7.52
2018-09-29T01:16:07.502Z,7.50
2018-09-29T01:18:36.952Z,7.49
2018-09-29T01:21:09.410Z,7.47
2018-09-29T01:23:38.923Z,7.44
2018-09-29T01:26:08.686Z,7.40
2018-09-29T01:28:39.069Z,7.37
2018-09-29T01:31:08.812Z,7.40
2018-09-29T01:33:38.300Z,7.42
2018-09-29T01:36:07.694Z,7.37
2018-09-29T01:38:37.291Z,7.36
2018-09-29T01:41:06.676Z,7.33
2018-09-29T01:43:36.036Z,7.30
2018-09-29T01:46:05.530Z,7.32
2018-09-29T01:48:34.928Z,7.27
2018-09-29T01:51:04.376Z,7.25
2018-09-29T01:53:33.734Z,7.28
2018-09-29T01:56:03.284Z,7.25
2018-09-29T01:58:32.619Z,7.33
2018-09-29T02:01:02.019Z,7.32
2018-09-29T02:03:31.394Z,7.23
2018-09-29T02:06:00.749Z,7.19
2018-09-29T02:08:30.117Z,7.15
2018-09-29T02:10:59.473Z,7.11
2018-09-29T02:13:29.545Z,7.06
2018-09-29T02:15:58.924Z,7.04
2018-09-29T02:18:28.284Z,7.04
2018-09-29T02:20:58.659Z,6.95
2018-09-29T02:23:28.060Z,6.87
2018-09-29T02:25:57.565Z,6.84
2018-09-29T02:28:27.077Z,6.82
2018-09-29T02:30:56.487Z,6.78
2018-09-29T02:33:25.879Z,6.84
2018-09-29T02:35:55.241Z,6.86
2018-09-29T02:38:24.584Z,6.89
2018-09-29T02:40:53.937Z,6.92
2018-09-29T02:43:23.494Z,6.93
2018-09-29T02:45:52.908Z,6.91
2018-09-29T02:48:22.305Z,6.91
2018-09-29T02:50:51.644Z,6.88
2018-09-29T02:53:21.010Z,6.83
2018-09-29T02:55:50.381Z,6.83
2018-09-29T02:58:19.756Z,6.81
2018-09-29T03:00:49.106Z,6.76
2018-09-29T03:03:18.455Z,6.71
2018-09-29T03:05:47.916Z,6.67
2018-09-29T03:08:17.337Z,6.67
2018-09-29T03:10:47.513Z,6.68
2018-09-29T03:13:16.879Z,6.61
2018-09-29T03:15:46.250Z,6.61
2018-09-29T03:18:16.974Z,6.63
2018-09-29T03:20:46.499Z,6.59
2018-09-29T03:23:16.069Z,6.55
2018-09-29T03:25:45.508Z,6.52
2018-09-29T03:28:14.846Z,6.48
2018-09-29T03:30:44.203Z,6.42
2018-09-29T03:33:13.550Z,6.42
2018-09-29T03:35:42.887Z,6.46
2018-09-29T03:38:12.249Z,6.51
2018-09-29T03:40:41.723Z,6.55
2018-09-29T03:43:11.096Z,6.52
2018-09-29T03:45:40.471Z,6.46
2018-09-29T03:48:09.816Z,6.40
2018-09-29T03:50:39.180Z,6.41
2018-09-29T03:53:08.531Z,6.38
2018-09-29T03:55:37.879Z,6.44
2018-09-29T03:58:07.220Z,6.55
2018-09-29T04:00:36.672Z,6.56
2018-09-29T04:03:06.090Z,6.60
2018-09-29T04:05:35.555Z,6.66
2018-09-29T04:08:04.970Z,6.69
2018-09-29T04:10:34.451Z,6.69
2018-09-29T04:13:03.893Z,6.71
2018-09-29T04:15:33.276Z,6.70
2018-09-29T04:18:02.682Z,6.72
2018-09-29T04:20:32.186Z,6.76
2018-09-29T04:23:01.560Z,6.68
2018-09-29T04:25:30.960Z,6.68
2018-09-29T04:28:00.708Z,6.58
2018-09-29T04:30:30.111Z,6.56
2018-09-29T04:32:59.456Z,6.57
2018-09-29T04:35:28.867Z,6.59
2018-09-29T04:37:58.228Z,6.62
2018-09-29T04:40:27.626Z,6.57
2018-09-29T04:42:57.031Z,6.52
2018-09-29T04:45:26.379Z,6.48
2018-09-29T04:47:55.907Z,6.48
2018-09-29T04:50:25.336Z,6.40
2018-09-29T04:52:54.687Z,6.37
2018-09-29T04:55:24.057Z,6.32
2018-09-29T04:57:53.476Z,6.30
2018-09-29T05:00:22.865Z,6.30
2018-09-29T05:02:52.203Z,6.30
2018-09-29T05:05:21.677Z,6.25
2018-09-29T05:07:51.069Z,6.25
2018-09-29T05:10:20.419Z,6.29
2018-09-29T05:12:49.782Z,6.26
2018-09-29T05:15:19.174Z,6.27
2018-09-29T05:17:48.518Z,6.24
2018-09-29T05:20:17.896Z,6.26
2018-09-29T05:22:49.127Z,6.25
2018-09-29T05:25:18.476Z,6.23
2018-09-29T05:27:47.931Z,6.21
2018-09-29T05:30:17.387Z,6.16
2018-09-29T05:32:46.787Z,6.17
2018-09-29T05:35:16.146Z,6.19
2018-09-29T05:37:45.553Z,6.27
2018-09-29T05:40:14.907Z,6.29
2018-09-29T05:42:44.350Z,6.29
2018-09-29T05:45:13.738Z,6.34
2018-09-29T05:47:43.103Z,6.40
2018-09-29T05:50:12.614Z,6.40
2018-09-29T05:52:41.964Z,6.41
2018-09-29T05:55:11.307Z,6.47
2018-09-29T05:57:40.711Z,6.53
2018-09-29T06:00:10.174Z,6.63
2018-09-29T06:02:39.503Z,6.76
2018-09-29T06:05:08.970Z,6.82
2018-09-29T06:07:38.375Z,6.93
2018-09-29T06:10:07.814Z,6.97
2018-09-29T06:12:37.178Z,7.11
2018-09-29T06:15:06.588Z,7.30
2018-09-29T06:17:35.938Z,7.41
2018-09-29T06:20:05.394Z,7.56
2018-09-29T06:22:34.753Z,7.80
2018-09-29T06:25:04.148Z,8.02
2018-09-29T06:27:33.619Z,8.40
2018-09-29T06:30:03.072Z,8.80
2018-09-29T06:32:32.439Z,9.03
2018-09-29T06:35:01.894Z,9.25
2018-09-29T06:37:32.166Z,9.74
2018-09-29T06:40:01.570Z,10.11
2018-09-29T06:42:30.937Z,10.56
2018-09-29T06:45:00.305Z,10.84
2018-09-29T06:47:29.677Z,11.16
2018-09-29T06:49:59.039Z,11.37
2018-09-29T06:52:30.431Z,11.57
2018-09-29T06:55:01.044Z,11.56
2018-09-29T06:57:30.433Z,11.93
2018-09-29T07:00:00.227Z,12.15
2018-09-29T07:02:29.584Z,12.53
2018-09-29T07:04:59.648Z,12.74
2018-09-29T07:07:29.164Z,13.14
2018-09-29T07:09:58.689Z,13.24
2018-09-29T07:12:28.416Z,13.28
2018-09-29T07:14:57.857Z,13.26
2018-09-29T07:17:27.240Z,13.58
2018-09-29T07:19:56.743Z,13.86
2018-09-29T07:22:26.144Z,13.96
2018-09-29T07:24:55.547Z,14.30
2018-09-29T07:27:24.987Z,14.27
2018-09-29T07:29:54.370Z,14.32
2018-09-29T07:32:24.029Z,14.55
2018-09-29T07:34:53.434Z,15.18
2018-09-29T07:37:22.840Z,14.73
2018-09-29T07:39:52.722Z,15.18
2018-09-29T07:42:22.372Z,15.52
2018-09-29T07:44:51.803Z,16.03
2018-09-29T07:47:21.190Z,16.23
2018-09-29T07:49:50.530Z,15.97
2018-09-29T07:52:19.894Z,16.37
2018-09-29T07:54:49.344Z,16.22
2018-09-29T07:57:19.647Z,16.91
2018-09-29T07:59:49.105Z,16.84
2018-09-29T08:02:18.498Z,17.10
2018-09-29T08:04:48.096Z,16.66
2018-09-29T08:07:17.507Z,15.34
2018-09-29T08:09:46.907Z,16.26
2018-09-29T08:12:16.376Z,16.23
2018-09-29T08:14:45.775Z,16.85
2018-09-29T08:17:15.129Z,16.67
2018-09-29T08:19:45.415Z,17.03
2018-09-29T08:22:14.806Z,17.02
2018-09-29T08:24:44.415Z,17.34
2018-09-29T08:27:13.782Z,17.07
2018-09-29T08:29:43.184Z,17.48
2018-09-29T08:32:12.557Z,17.69
2018-09-29T08:34:41.896Z,17.82
2018-09-29T08:37:11.293Z,17.45
2018-09-29T08:39:40.660Z,17.35
2018-09-29T08:42:10.021Z,17.55
2018-09-29T08:44:39.391Z,17.62
2018-09-29T08:47:08.803Z,18.47
2018-09-29T08:49:38.631Z,18.72
2018-09-29T08:52:08.732Z,19.10
2018-09-29T08:54:38.205Z,18.79
2018-09-29T08:57:08.179Z,18.03
2018-09-29T08:59:37.570Z,18.48
2018-09-29T09:02:07.939Z,19.06
2018-09-29T09:04:37.329Z,19.30
2018-09-29T09:07:07.147Z,19.70
2018-09-29T09:09:36.552Z,19.36
2018-09-29T09:12:06.061Z,18.96
2018-09-29T09:14:35.478Z,19.77
2018-09-29T09:17:04.993Z,19.91
2018-09-29T09:19:34.365Z,20.07
2018-09-29T09:22:03.800Z,20.64
2018-09-29T09:24:33.368Z,20.17
2018-09-29T09:27:02.752Z,20.48
2018-09-29T09:29:33.131Z,20.19
2018-09-29T09:32:02.500Z,20.61
2018-09-29T09:34:31.880Z,20.80
2018-09-29T09:37:01.258Z,20.53
2018-09-29T09:39:30.630Z,19.90
2018-09-29T09:42:00.850Z,20.37
2018-09-29T09:44:30.283Z,21.05
2018-09-29T09:46:59.633Z,20.82
2018-09-29T09:49:29.074Z,20.23
2018-09-29T09:51:58.473Z,20.33
2018-09-29T09:54:27.872Z,20.57
2018-09-29T09:56:57.383Z,19.37
2018-09-29T09:59:26.803Z,20.16
2018-09-29T10:02:01.770Z,19.30
2018-09-29T10:04:31.159Z,19.86
2018-09-29T10:07:00.633Z,20.28
2018-09-29T10:09:30.132Z,20.23
2018-09-29T10:11:59.542Z,20.56
2018-09-29T10:14:28.948Z,20.08
2018-09-29T10:16:58.787Z,20.46
2018-09-29T10:19:28.647Z,19.67
2018-09-29T10:21:58.088Z,20.89
2018-09-29T10:24:27.510Z,21.21
2018-09-29T10:26:56.990Z,21.15
2018-09-29T10:29:26.362Z,20.77
2018-09-29T10:31:55.727Z,21.19
2018-09-29T10:34:25.119Z,21.56
2018-09-29T10:36:54.522Z,21.15
2018-09-29T10:39:23.924Z,20.97
2018-09-29T10:41:54.035Z,21.07
2018-09-29T10:44:23.564Z,21.75
2018-09-29T10:46:53.015Z,21.37
2018-09-29T10:49:23.042Z,21.87
2018-09-29T10:52:23.480Z,21.74
2018-09-29T10:54:52.898Z,21.69
2018-09-29T10:57:22.420Z,19.93
2018-09-29T10:59:53.956Z,21.26
2018-09-29T11:02:23.451Z,21.63
2018-09-29T11:04:52.838Z,22.20
2018-09-29T11:07:22.290Z,21.79
2018-09-29T11:09:51.668Z,21.79
2018-09-29T11:12:21.038Z,22.21
2018-09-29T11:14:50.397Z,21.69
2018-09-29T11:17:20.083Z,22.56
2018-09-29T11:19:49.786Z,22.72
2018-09-29T11:22:19.270Z,23.23
2018-09-29T11:24:48.671Z,21.64
2018-09-29T11:27:18.048Z,21.68
2018-09-29T11:29:47.532Z,21.98
2018-09-29T11:32:17.096Z,22.68
2018-09-29T11:34:46.504Z,22.50
2018-09-29T11:37:15.861Z,22.64
2018-09-29T11:39:45.706Z,23.24
2018-09-29T11:42:16.487Z,23.57
2018-09-29T11:44:46.643Z,22.98
2018-09-29T11:47:16.210Z,21.42
2018-09-29T11:49:45.559Z,22.81
2018-09-29T11:52:14.991Z,23.23
2018-09-29T11:54:44.415Z,22.28
2018-09-29T11:57:13.771Z,22.82
2018-09-29T11:59:43.704Z,22.92
2018-09-29T12:02:13.174Z,22.85
2018-09-29T12:04:43.501Z,22.29
2018-09-29T12:07:16.146Z,22.08
2018-09-29T12:09:45.444Z,22.18
2018-09-29T12:12:14.799Z,22.63
2018-09-29T12:14:44.761Z,22.63
2018-09-29T12:17:15.011Z,21.59
2018-09-29T12:19:44.582Z,22.24
2018-09-29T12:22:14.377Z,22.29
2018-09-29T12:24:43.792Z,22.27
2018-09-29T12:27:13.233Z,21.86
2018-09-29T12:29:42.809Z,22.53
2018-09-29T12:32:12.188Z,22.29
2018-09-29T12:34:41.638Z,22.32
2018-09-29T12:37:11.320Z,22.74
2018-09-29T12:39:40.754Z,22.87
2018-09-29T12:42:10.887Z,23.32
2018-09-29T12:44:40.280Z,23.03
2018-09-29T12:47:09.680Z,22.81
2018-09-29T12:49:39.291Z,22.50
2018-09-29T12:52:08.638Z,22.23
2018-09-29T12:54:38.097Z,23.00
2018-09-29T12:57:07.578Z,22.02
2018-09-29T12:59:36.935Z,22.34
2018-09-29T13:02:07.373Z,22.23
2018-09-29T13:04:36.836Z,22.65
2018-09-29T13:07:06.455Z,22.67
2018-09-29T13:09:35.992Z,23.03
2018-09-29T13:12:05.559Z,22.80
2018-09-29T13:14:35.127Z,22.44
2018-09-29T13:17:04.516Z,22.30
2018-09-29T13:19:33.875Z,22.76
2018-09-29T13:22:05.059Z,22.01
2018-09-29T13:24:34.443Z,22.30
2018-09-29T13:27:03.811Z,22.31
2018-09-29T13:29:33.207Z,22.51
2018-09-29T13:32:02.795Z,22.77
2018-09-29T13:34:32.226Z,22.62
2018-09-29T13:37:01.754Z,22.50
2018-09-29T13:39:31.096Z,22.53
2018-09-29T13:42:00.558Z,21.91
2018-09-29T13:44:29.956Z,21.36
2018-09-29T13:46:59.343Z,21.56
2018-09-29T13:49:28.895Z,20.19
2018-09-29T13:51:59.032Z,20.02
2018-09-29T13:54:28.404Z,19.78
2018-09-29T13:56:57.811Z,20.05
2018-09-29T13:59:27.305Z,19.94
2018-09-29T14:01:56.677Z,20.39
2018-09-29T14:04:26.215Z,20.19
2018-09-29T14:06:55.706Z,20.48
2018-09-29T14:09:25.127Z,20.63
2018-09-29T14:11:54.677Z,20.45
2018-09-29T14:14:24.051Z,20.38
2018-09-29T14:16:54.193Z,20.42
2018-09-29T14:19:23.630Z,19.67
2018-09-29T14:21:53.070Z,20.25
2018-09-29T14:24:22.437Z,20.23
2018-09-29T14:26:51.979Z,20.12
2018-09-29T14:29:22.302Z,19.88
2018-09-29T14:31:51.719Z,19.94
2018-09-29T14:34:21.109Z,19.82
2018-09-29T14:36:50.509Z,19.41
2018-09-29T14:39:19.909Z,18.54
2018-09-29T14:41:49.453Z,19.13
2018-09-29T14:44:18.930Z,19.19
2018-09-29T14:46:48.439Z,19.04
2018-09-29T14:49:18.365Z,18.98
2018-09-29T14:51:47.752Z,18.54
2018-09-29T14:54:17.165Z,18.89
2018-09-29T14:56:46.507Z,18.63
2018-09-29T14:59:16.074Z,18.43
2018-09-29T15:01:45.475Z,18.58
2018-09-29T15:04:14.855Z,18.14
2018-09-29T15:06:44.197Z,18.04
2018-09-29T15:09:13.915Z,17.98
2018-09-29T15:11:43.352Z,17.90
2018-09-29T15:14:12.748Z,17.87
2018-09-29T15:16:42.545Z,17.54
2018-09-29T15:19:11.900Z,17.49
2018-09-29T15:21:41.319Z,17.17
2018-09-29T15:24:10.825Z,17.42
2018-09-29T15:26:40.334Z,17.04
2018-09-29T15:29:09.877Z,17.35
2018-09-29T15:31:39.292Z,17.31
2018-09-29T15:34:08.675Z,17.15
2018-09-29T15:36:38.931Z,17.15
2018-09-29T15:39:11.168Z,16.97
2018-09-29T15:41:40.646Z,16.93
2018-09-29T15:44:10.604Z,16.87
2018-09-29T15:46:40.307Z,16.84
2018-09-29T15:49:09.660Z,16.82
2018-09-29T15:51:39.196Z,16.78
2018-09-29T15:54:08.653Z,16.72
2018-09-29T15:56:38.043Z,16.68
2018-09-29T15:59:07.700Z,16.56
2018-09-29T16:01:37.112Z,16.56
2018-09-29T16:04:06.597Z,16.48
2018-09-29T16:06:35.956Z,16.41
2018-09-29T16:09:07.289Z,16.30
2018-09-29T16:11:36.666Z,16.26
2018-09-29T16:14:06.150Z,16.25
2018-09-29T16:16:35.716Z,16.18
2018-09-29T16:19:05.198Z,16.06
2018-09-29T16:21:34.625Z,16.05
2018-09-29T16:24:03.990Z,16.03
2018-09-29T16:26:33.420Z,15.93
2018-09-29T16:29:02.951Z,15.91
2018-09-29T16:31:32.361Z,15.88
2018-09-29T16:34:01.742Z,15.87
2018-09-29T16:36:31.242Z,15.76
2018-09-29T16:39:00.724Z,15.74
2018-09-29T16:41:30.258Z,15.84
2018-09-29T16:43:59.656Z,16.07
2018-09-29T16:46:29.076Z,15.95
2018-09-29T16:48:58.459Z,15.82
2018-09-29T16:51:27.860Z,15.65
2018-09-29T16:53:57.744Z,15.53
2018-09-29T16:56:27.145Z,15.43
2018-09-29T16:58:56.512Z,15.31
2018-09-29T17:01:25.876Z,15.17
2018-09-29T17:03:55.274Z,15.07
2018-09-29T17:06:24.699Z,14.93
2018-09-29T17:08:54.082Z,14.83
2018-09-29T17:11:23.519Z,14.74
2018-09-29T17:13:53.042Z,14.72
2018-09-29T17:16:22.671Z,14.59
2018-09-29T17:18:52.215Z,14.53
2018-09-29T17:21:21.683Z,14.42
2018-09-29T17:23:51.059Z,14.33
2018-09-29T17:26:20.440Z,14.20
2018-09-29T17:28:49.810Z,14.12
2018-09-29T17:31:19.198Z,14.02
2018-09-29T17:33:48.725Z,13.97
2018-09-29T17:36:18.123Z,13.97
2018-09-29T17:38:47.583Z,13.89
2018-09-29T17:41:17.559Z,13.79
2018-09-29T17:43:46.991Z,13.68
2018-09-29T17:46:16.379Z,13.58
2018-09-29T17:48:45.795Z,13.51
2018-09-29T17:51:15.269Z,13.46
2018-09-29T17:53:44.704Z,13.47
2018-09-29T17:56:14.143Z,13.44
2018-09-29T17:58:43.612Z,13.48
2018-09-29T18:01:13.016Z,13.44
2018-09-29T18:03:42.440Z,13.42
2018-09-29T18:06:11.853Z,13.39
2018-09-29T18:08:41.286Z,13.32
2018-09-29T18:11:10.723Z,13.37
2018-09-29T18:13:40.182Z,13.28
2018-09-29T18:16:09.512Z,13.24
2018-09-29T18:18:39.963Z,13.20
2018-09-29T18:21:09.505Z,13.18
2018-09-29T18:23:38.976Z,13.16
2018-09-29T18:26:08.475Z,13.06
2018-09-29T18:28:37.848Z,13.06
2018-09-29T18:31:07.483Z,13.00
2018-09-29T18:33:37.863Z,12.86
2018-09-29T18:36:07.807Z,12.78
2018-09-29T18:38:37.724Z,12.73
2018-09-29T18:41:07.441Z,12.62
2018-09-29T18:43:39.107Z,12.57
2018-09-29T18:46:09.151Z,12.53
2018-09-29T18:48:38.735Z,12.45
2018-09-29T18:51:08.341Z,12.42
2018-09-29T18:53:37.748Z,12.41
2018-09-29T18:56:07.154Z,12.42
2018-09-29T18:58:36.709Z,12.39
2018-09-29T19:01:06.697Z,12.39
2018-09-29T19:03:36.445Z,12.31
2018-09-29T19:06:06.014Z,12.28
2018-09-29T19:08:35.648Z,12.21
2018-09-29T19:11:05.881Z,12.19
2018-09-29T19:13:35.359Z,12.06
2018-09-29T19:16:04.971Z,12.05
2018-09-29T19:18:34.569Z,11.97
2018-09-29T19:21:04.045Z,11.97
2018-09-29T19:23:33.491Z,11.96
2018-09-29T19:26:03.754Z,11.93
2018-09-29T19:28:33.272Z,11.98
2018-09-29T19:31:02.778Z,11.87
2018-09-29T19:33:32.222Z,11.92
2018-09-29T19:36:01.623Z,11.88
2018-09-29T19:38:31.327Z,11.80
2018-09-29T19:41:01.006Z,11.73
2018-09-29T19:43:30.483Z,11.70
2018-09-29T19:45:59.932Z,11.67
2018-09-29T19:48:29.315Z,11.69
2018-09-29T19:50:58.699Z,11.63
2018-09-29T19:53:28.300Z,11.56
2018-09-29T19:55:57.760Z,11.53
2018-09-29T19:58:28.173Z,11.50
2018-09-29T20:00:57.697Z,11.51
2018-09-29T20:03:27.201Z,11.46
2018-09-29T20:05:56.709Z,11.40
2018-09-29T20:08:26.344Z,11.31
2018-09-29T20:10:55.921Z,11.22
2018-09-29T20:13:25.492Z,11.18
2018-09-29T20:15:54.951Z,11.12
2018-09-29T20:18:24.406Z,11.06
2018-09-29T20:20:53.900Z,10.97
2018-09-29T20:23:23.487Z,11.04
2018-09-29T20:25:52.996Z,10.99
2018-09-29T20:28:23.136Z,10.91
2018-09-29T20:30:52.590Z,10.84
2018-09-29T20:33:22.021Z,10.84
2018-09-29T20:35:51.428Z,10.79
2018-09-29T20:38:21.319Z,10.69
2018-09-29T20:40:50.736Z,10.62
2018-09-29T20:43:20.160Z,10.58
2018-09-29T20:45:49.774Z,10.52
2018-09-29T20:48:19.365Z,10.47
2018-09-29T20:50:48.797Z,10.44
2018-09-29T20:53:18.380Z,10.43
2018-09-29T20:55:47.956Z,10.40
2018-09-29T20:58:17.331Z,10.46
2018-09-29T21:00:46.763Z,10.46
2018-09-29T21:03:16.242Z,10.48
2018-09-29T21:05:48.119Z,10.41
2018-09-29T21:08:17.542Z,10.34
2018-09-29T21:10:46.932Z,10.30
2018-09-29T21:13:16.349Z,10.27
2018-09-29T21:15:45.977Z,10.30
2018-09-29T21:18:15.564Z,10.31
2018-09-29T21:20:45.282Z,10.33
2018-09-29T21:23:14.682Z,10.31
2018-09-29T21:25:44.668Z,10.27
2018-09-29T21:28:14.082Z,10.24
2018-09-29T21:30:43.536Z,10.19
2018-09-29T21:33:13.653Z,10.27
2018-09-29T21:35:43.236Z,10.29
2018-09-29T21:38:12.680Z,10.28
2018-09-29T21:40:42.073Z,10.44
2018-09-29T21:43:11.549Z,10.48
2018-09-29T21:45:41.055Z,10.51
2018-09-29T21:48:10.552Z,10.52
2018-09-29T21:50:39.996Z,10.53
2018-09-29T21:53:09.395Z,10.52
2018-09-29T21:55:38.998Z,10.42
2018-09-29T21:58:08.904Z,10.33
2018-09-29T22:00:45.416Z,10.23
2018-09-29T22:03:16.040Z,10.11
2018-09-29T22:05:46.439Z,9.98
2018-09-29T22:08:15.875Z,9.90
2018-09-29T22:10:45.335Z,9.82
2018-09-29T22:13:14.902Z,9.87
2018-09-29T22:15:45.174Z,9.87
2018-09-29T22:18:14.575Z,9.89
2018-09-29T22:20:44.142Z,9.85
2018-09-29T22:23:13.652Z,9.87
2018-09-29T22:25:43.096Z,9.81
2018-09-29T22:28:12.647Z,9.81
2018-09-29T22:30:42.113Z,9.80
2018-09-29T22:33:12.059Z,9.92
2018-09-29T22:35:41.428Z,10.01
2018-09-29T22:38:10.785Z,9.98
2018-09-29T22:40:40.150Z,10.02
2018-09-29T22:43:10.555Z,10.04
2018-09-29T22:45:39.979Z,10.05
2018-09-29T22:48:09.410Z,10.03
2018-09-29T22:50:38.754Z,9.93
2018-09-29T22:53:08.158Z,9.96
2018-09-29T22:55:37.570Z,10.00
2018-09-29T22:58:07.389Z,9.97
2018-09-29T23:00:36.859Z,10.09
2018-09-29T23:03:06.552Z,10.12
2018-09-29T23:05:35.998Z,10.10
2018-09-29T23:08:05.524Z,10.15
2018-09-29T23:10:34.891Z,10.12
2018-09-29T23:13:05.367Z,10.09
2018-09-29T23:15:35.133Z,10.11
2018-09-29T23:18:04.560Z,9.99
2018-09-29T23:20:34.487Z,9.96
2018-09-29T23:23:03.852Z,9.93
2018-09-29T23:25:33.285Z,9.84
2018-09-29T23:28:02.994Z,9.80
2018-09-29T23:30:32.387Z,9.73
2018-09-29T23:33:01.731Z,9.63
2018-09-29T23:35:31.106Z,9.56
2018-09-29T23:38:00.512Z,9.46
2018-09-29T23:40:29.915Z,9.43
2018-09-29T23:43:05.368Z,9.49
2018-09-29T23:45:36.095Z,9.43
2018-09-29T23:48:07.244Z,9.48
2018-09-29T23:50:36.768Z,9.51
2018-09-29T23:53:06.300Z,9.63
2018-09-29T23:55:35.760Z,9.51
2018-09-29T23:58:05.238Z,9.47
